createdAt,value
2022-09-17T00:02:59.410Z,68.43
2022-09-17T00:08:01.168Z,68.66
2022-09-17T00:13:02.696Z,68.81
2022-09-17T00:18:04.232Z,68.90
2022-09-17T00:23:06.826Z,68.99
2022-09-17T00:28:09.180Z,68.63
2022-09-17T00:33:15.984Z,68.97
2022-09-17T00:38:17.483Z,68.49
2022-09-17T00:43:49.671Z,68.71
2022-09-17T00:48:54.087Z,68.79
2022-09-17T00:53:56.483Z,69.46
2022-09-17T00:58:58.489Z,69.57
2022-09-17T01:04:00.325Z,69.56
2022-09-17T01:09:07.110Z,69.42
2022-09-17T01:14:14.725Z,69.99
2022-09-17T01:19:37.488Z,69.40
2022-09-17T01:24:49.467Z,69.57
2022-09-17T01:30:12.441Z,69.66
2022-09-17T01:35:38.288Z,69.75
2022-09-17T01:40:54.050Z,70.78
2022-09-17T01:46:21.027Z,70.38
2022-09-17T01:51:25.286Z,69.92
2022-09-17T01:56:33.938Z,70.32
2022-09-17T02:01:38.455Z,70.17
2022-09-17T02:06:46.379Z,70.70
2022-09-17T02:11:55.321Z,70.08
2022-09-17T02:17:11.054Z,70.27
2022-09-17T02:22:28.066Z,70.18
2022-09-17T02:27:37.798Z,71.27
2022-09-17T02:32:39.500Z,70.88
2022-09-17T02:37:42.381Z,72.08
2022-09-17T02:43:03.939Z,71.83
2022-09-17T02:48:12.725Z,71.51
2022-09-17T02:53:38.245Z,71.99
2022-09-17T02:59:11.728Z,72.24
2022-09-17T03:04:17.342Z,73.19
2022-09-17T03:09:19.023Z,74.01
2022-09-17T03:14:20.886Z,73.83
2022-09-17T03:19:22.487Z,73.89
2022-09-17T03:24:24.058Z,74.18
2022-09-17T03:29:25.807Z,73.60
2022-09-17T03:34:27.341Z,73.81
2022-09-17T03:39:29.797Z,74.49
2022-09-17T03:44:31.427Z,74.96
2022-09-17T03:49:33.202Z,75.27
2022-09-17T03:54:34.760Z,75.34
2022-09-17T03:59:36.326Z,75.71
2022-09-17T04:04:37.936Z,76.03
2022-09-17T04:09:39.463Z,77.02
2022-09-17T04:14:41.005Z,77.84
2022-09-17T04:19:42.554Z,78.78
2022-09-17T04:24:44.137Z,79.98
2022-09-17T04:29:45.725Z,80.88
2022-09-17T04:34:47.327Z,81.75
2022-09-17T04:39:48.944Z,83.53
2022-09-17T04:44:50.560Z,84.61
2022-09-17T04:49:52.228Z,85.96
2022-09-17T04:54:53.761Z,87.02
2022-09-17T04:59:55.306Z,87.57
2022-09-17T05:04:56.929Z,87.97
2022-09-17T05:09:58.498Z,88.19
2022-09-17T05:15:00.132Z,90.10
2022-09-17T05:20:02.001Z,90.80
2022-09-17T05:25:03.857Z,92.73
2022-09-17T05:30:06.417Z,92.44
2022-09-17T05:35:09.202Z,93.29
2022-09-17T05:40:10.931Z,91.79
2022-09-17T05:45:12.817Z,91.33
2022-09-17T05:50:14.572Z,91.11
2022-09-17T05:55:16.571Z,92.06
2022-09-17T06:00:18.946Z,93.91
2022-09-17T06:05:20.611Z,94.06
2022-09-17T06:10:22.342Z,93.78
2022-09-17T06:15:24.197Z,94.19
2022-09-17T06:20:25.861Z,93.70
2022-09-17T06:25:27.476Z,94.92
2022-09-17T06:30:29.533Z,95.59
2022-09-17T06:35:31.364Z,94.65
2022-09-17T06:40:33.220Z,96.59
2022-09-17T06:45:34.843Z,96.90
2022-09-17T06:50:40.589Z,97.35
2022-09-17T06:55:44.146Z,98.28
2022-09-17T07:00:45.755Z,99.14
2022-09-17T07:05:47.706Z,100.00
2022-09-17T07:10:49.430Z,100.00
2022-09-17T07:15:59.524Z,100.00
2022-09-17T07:21:06.072Z,100.00
2022-09-17T07:26:12.828Z,100.00
2022-09-17T07:31:16.532Z,100.00
2022-09-17T07:36:18.614Z,100.00
2022-09-17T07:41:20.213Z,100.00
2022-09-17T07:46:21.845Z,100.00
2022-09-17T07:51:25.734Z,100.00
2022-09-17T07:56:27.904Z,100.00
2022-09-17T08:01:29.764Z,98.48
2022-09-17T08:06:31.402Z,97.32
2022-09-17T08:16:54.870Z,94.58
2022-09-17T08:21:56.742Z,94.46
2022-09-17T08:26:58.321Z,94.44
2022-09-17T08:31:59.985Z,91.72
2022-09-17T08:37:01.601Z,88.95
2022-09-17T08:42:31.341Z,85.37
2022-09-17T08:47:41.190Z,84.41
2022-09-17T08:52:59.682Z,85.44
2022-09-17T08:58:22.779Z,81.81
2022-09-17T09:03:49.318Z,78.70
2022-09-17T09:08:59.038Z,79.04
2022-09-17T09:14:09.670Z,78.39
2022-09-17T09:19:26.877Z,74.83
2022-09-17T09:24:42.235Z,76.47
2022-09-17T09:30:04.326Z,73.36
2022-09-17T09:35:18.935Z,71.63
2022-09-17T09:40:48.655Z,71.09
2022-09-17T09:46:11.444Z,71.69
2022-09-17T09:51:20.544Z,70.94
2022-09-17T09:56:52.843Z,73.81
2022-09-17T10:01:54.603Z,72.23
2022-09-17T10:07:08.641Z,70.07
2022-09-17T10:12:10.905Z,70.92
2022-09-17T10:17:26.620Z,76.77
2022-09-17T10:22:32.630Z,81.42
2022-09-17T10:27:36.811Z,85.07
2022-09-17T10:32:38.404Z,80.43
2022-09-17T10:37:48.814Z,81.56
2022-09-17T10:43:11.196Z,77.37
2022-09-17T10:48:18.161Z,80.63
2022-09-17T10:53:23.297Z,80.80
2022-09-17T10:58:39.194Z,73.63
2022-09-17T11:04:21.094Z,73.39
2022-09-17T11:09:30.451Z,69.40
2022-09-17T11:15:00.871Z,73.38
2022-09-17T11:20:27.148Z,75.82
2022-09-17T11:25:39.701Z,74.21
2022-09-17T11:30:55.441Z,70.52
2022-09-17T11:36:04.354Z,67.84
2022-09-17T11:41:31.090Z,61.75
2022-09-17T11:46:40.536Z,67.49
2022-09-17T11:51:58.475Z,70.06
2022-09-17T11:57:16.838Z,72.29
2022-09-17T12:02:27.310Z,75.44
2022-09-17T12:07:33.834Z,71.63
2022-09-17T12:12:49.984Z,70.97
2022-09-17T12:18:31.313Z,71.71
2022-09-17T12:23:40.228Z,74.52
2022-09-17T12:28:47.039Z,73.96
2022-09-17T12:33:52.959Z,75.19
2022-09-17T12:39:12.927Z,71.65
2022-09-17T12:44:25.922Z,69.08
2022-09-17T12:49:43.364Z,69.18
2022-09-17T12:54:54.727Z,66.32
2022-09-17T13:00:11.739Z,66.49
2022-09-17T13:05:41.414Z,64.98
2022-09-17T13:11:20.179Z,64.55
2022-09-17T13:16:41.165Z,66.39
2022-09-17T13:22:00.355Z,71.59
2022-09-17T13:27:03.909Z,72.08
2022-09-17T13:32:05.418Z,73.13
2022-09-17T13:37:20.391Z,75.07
2022-09-17T13:42:29.241Z,71.93
2022-09-17T13:47:56.975Z,67.78
2022-09-17T13:53:06.608Z,64.48
2022-09-17T13:58:36.409Z,58.59
2022-09-17T14:03:42.028Z,58.89
2022-09-17T14:08:43.701Z,59.63
2022-09-17T14:13:45.929Z,59.81
2022-09-17T14:18:58.888Z,59.88
2022-09-17T14:24:03.688Z,58.65
2022-09-17T14:29:43.639Z,59.82
2022-09-17T14:34:45.412Z,58.80
2022-09-17T14:39:49.083Z,56.74
2022-09-17T14:45:02.368Z,57.79
2022-09-17T14:50:26.381Z,58.43
2022-09-17T14:55:31.873Z,55.91
2022-09-17T15:00:38.091Z,57.77
2022-09-17T15:05:41.073Z,57.96
2022-09-17T15:11:02.674Z,58.04
2022-09-17T15:16:12.833Z,57.07
2022-09-17T15:21:43.458Z,55.82
2022-09-17T15:26:51.491Z,55.32
2022-09-17T15:31:53.454Z,53.22
2022-09-17T15:37:24.934Z,51.18
2022-09-17T15:42:29.503Z,51.28
2022-09-17T15:47:48.640Z,52.65
2022-09-17T15:52:51.797Z,54.43
2022-09-17T15:57:53.635Z,51.92
2022-09-17T16:02:55.638Z,53.57
2022-09-17T16:08:18.146Z,53.41
2022-09-17T16:13:19.795Z,51.08
2022-09-17T16:18:21.441Z,52.73
2022-09-17T16:23:23.178Z,53.14
2022-09-17T16:28:24.841Z,53.44
2022-09-17T16:33:28.273Z,54.68
2022-09-17T16:38:29.837Z,54.34
2022-09-17T16:43:33.787Z,54.58
2022-09-17T16:48:35.392Z,56.07
2022-09-17T16:53:37.337Z,59.00
2022-09-17T16:58:40.161Z,59.75
2022-09-17T17:03:42.232Z,59.77
2022-09-17T17:08:43.925Z,58.43
2022-09-17T17:13:45.647Z,59.02
2022-09-17T17:18:47.315Z,59.32
2022-09-17T17:23:49.083Z,58.24
2022-09-17T17:28:50.834Z,56.08
2022-09-17T17:33:52.697Z,57.45
2022-09-17T17:39:00.898Z,58.02
2022-09-17T17:44:02.850Z,58.11
2022-09-17T17:49:04.830Z,58.93
2022-09-17T17:54:06.602Z,59.14
2022-09-17T17:59:08.401Z,60.05
2022-09-17T18:04:10.122Z,60.63
2022-09-17T18:09:11.790Z,59.92
2022-09-17T18:14:13.930Z,60.71
2022-09-17T18:19:15.598Z,60.75
2022-09-17T18:24:17.216Z,61.59
2022-09-17T18:29:18.902Z,62.01
2022-09-17T18:34:20.563Z,62.31
2022-09-17T18:44:44.131Z,63.70
2022-09-17T18:49:45.767Z,64.35
2022-09-17T18:54:47.362Z,64.61
2022-09-17T18:59:48.951Z,65.71
2022-09-17T19:04:50.542Z,65.69
2022-09-17T19:09:52.162Z,65.73
2022-09-17T19:14:54.424Z,67.13
2022-09-17T19:19:56.011Z,67.02
2022-09-17T19:24:57.675Z,68.73
2022-09-17T19:30:00.468Z,68.28
2022-09-17T19:35:02.282Z,68.76
2022-09-17T19:40:05.787Z,68.21
2022-09-17T19:45:08.071Z,68.50
2022-09-17T19:50:09.795Z,69.73
2022-09-17T19:55:13.077Z,71.72
2022-09-17T20:00:15.640Z,73.93
2022-09-17T20:05:17.342Z,75.82
2022-09-17T20:10:19.496Z,78.57
2022-09-17T20:15:21.098Z,79.37
2022-09-17T20:20:28.297Z,79.97
2022-09-17T20:25:29.948Z,81.76
2022-09-17T20:30:31.542Z,82.89
2022-09-17T20:35:35.756Z,82.86
2022-09-17T20:40:37.460Z,83.13
2022-09-17T20:45:39.095Z,85.25
2022-09-17T20:50:40.762Z,88.77
2022-09-17T20:55:42.341Z,88.56
2022-09-17T21:00:44.023Z,92.69
2022-09-17T21:05:45.693Z,90.15
2022-09-17T21:10:47.254Z,90.44
2022-09-17T21:16:00.066Z,91.08
2022-09-17T21:21:07.622Z,88.53
2022-09-17T21:26:14.804Z,89.70
2022-09-17T21:31:31.027Z,89.40
2022-09-17T21:36:36.301Z,88.91
2022-09-17T21:41:42.368Z,88.52
2022-09-17T21:46:44.654Z,85.52
2022-09-17T21:51:46.514Z,85.01
2022-09-17T21:56:48.118Z,87.24
2022-09-17T22:01:50.639Z,88.93
2022-09-17T22:06:53.368Z,90.32
2022-09-17T22:11:55.124Z,89.25
2022-09-17T22:16:57.222Z,89.42
2022-09-17T22:21:59.005Z,89.44
2022-09-17T22:27:00.626Z,88.03
2022-09-17T22:32:02.585Z,87.14
2022-09-17T22:37:06.103Z,87.61
2022-09-17T22:42:07.697Z,87.50
2022-09-17T22:47:09.340Z,90.79
2022-09-17T22:52:10.973Z,95.78
2022-09-17T22:57:12.530Z,97.45
2022-09-17T23:02:14.127Z,98.19
2022-09-17T23:07:15.680Z,98.67
2022-09-17T23:12:17.308Z,100.00
2022-09-17T23:17:18.959Z,99.35
2022-09-17T23:22:23.137Z,100.00
2022-09-17T23:27:24.695Z,100.00
2022-09-17T23:32:26.326Z,100.00
2022-09-17T23:37:28.149Z,100.00
2022-09-17T23:42:29.791Z,100.00
2022-09-17T23:47:31.704Z,100.00
2022-09-17T23:52:33.297Z,100.00
2022-09-17T23:57:34.843Z,100.00
